createdAt,value
2023-01-29T00:01:25.306Z,77.37
2023-01-29T00:03:52.483Z,77.69
2023-01-29T00:06:19.498Z,78.06
2023-01-29T00:08:46.897Z,77.26
2023-01-29T00:11:14.224Z,77.21
2023-01-29T00:13:41.507Z,77.31
2023-01-29T00:16:09.272Z,77.08
2023-01-29T00:18:42.889Z,77.47
2023-01-29T00:21:14.587Z,78.12
2023-01-29T00:23:42.232Z,78.63
2023-01-29T00:26:09.799Z,78.41
2023-01-29T00:28:37.319Z,78.22
2023-01-29T00:31:14.873Z,78.93
2023-01-29T00:33:42.124Z,77.90
2023-01-29T00:36:10.598Z,77.97
2023-01-29T00:38:37.646Z,78.27
2023-01-29T00:41:33.619Z,77.81
2023-01-29T00:44:19.627Z,78.20
2023-01-29T00:46:47.083Z,77.95
2023-01-29T00:49:14.219Z,77.78
2023-01-29T00:51:41.290Z,77.66
2023-01-29T00:54:08.066Z,77.72
2023-01-29T00:56:36.026Z,78.01
2023-01-29T00:59:03.745Z,77.55
2023-01-29T01:01:48.859Z,77.19
2023-01-29T01:04:15.605Z,77.30
2023-01-29T01:06:42.801Z,77.62
2023-01-29T01:09:30.895Z,77.59
2023-01-29T01:11:57.956Z,78.36
2023-01-29T01:14:25.185Z,78.89
2023-01-29T01:16:52.184Z,78.41
2023-01-29T01:19:19.131Z,78.42
2023-01-29T01:21:48.406Z,77.22
2023-01-29T01:24:15.615Z,76.87
2023-01-29T01:26:42.851Z,77.20
2023-01-29T01:29:09.568Z,76.61
2023-01-29T01:31:36.996Z,77.28
2023-01-29T01:34:03.896Z,77.15
2023-01-29T01:36:32.603Z,77.25
2023-01-29T01:38:59.541Z,77.02
2023-01-29T01:41:26.331Z,77.11
2023-01-29T01:43:56.305Z,77.28
2023-01-29T01:46:23.439Z,78.58
2023-01-29T01:48:54.680Z,77.94
2023-01-29T01:51:22.000Z,76.61
2023-01-29T01:54:03.258Z,76.51
2023-01-29T01:56:40.791Z,76.24
2023-01-29T01:59:10.102Z,77.19
2023-01-29T02:01:38.438Z,76.51
2023-01-29T02:04:25.925Z,76.20
2023-01-29T02:07:11.476Z,76.30
2023-01-29T02:09:55.673Z,76.46
2023-01-29T02:12:22.183Z,76.01
2023-01-29T02:14:48.636Z,75.89
2023-01-29T02:17:16.683Z,76.78
2023-01-29T02:20:11.017Z,75.86
2023-01-29T02:23:15.779Z,76.17
2023-01-29T02:26:21.493Z,76.99
2023-01-29T02:29:22.414Z,77.38
2023-01-29T02:32:04.269Z,77.29
2023-01-29T02:35:10.869Z,76.96
2023-01-29T02:37:40.107Z,76.95
2023-01-29T02:40:14.902Z,76.56
2023-01-29T02:42:50.700Z,76.55
2023-01-29T02:45:29.577Z,76.60
2023-01-29T02:47:58.714Z,77.02
2023-01-29T02:50:33.110Z,76.12
2023-01-29T02:53:24.069Z,77.40
2023-01-29T02:55:55.081Z,76.93
2023-01-29T02:58:31.173Z,76.96
2023-01-29T03:01:00.892Z,77.07
2023-01-29T03:03:31.194Z,77.79
2023-01-29T03:06:02.547Z,77.32
2023-01-29T03:08:42.916Z,77.63
2023-01-29T03:11:15.760Z,77.21
2023-01-29T03:13:44.284Z,77.40
2023-01-29T03:16:12.618Z,76.15
2023-01-29T03:18:46.208Z,76.64
2023-01-29T03:21:44.169Z,77.70
2023-01-29T03:24:29.769Z,77.29
2023-01-29T03:27:15.322Z,78.23
2023-01-29T03:30:00.054Z,78.17
2023-01-29T03:32:28.753Z,77.32
2023-01-29T03:34:58.229Z,77.75
2023-01-29T03:37:43.859Z,76.47
2023-01-29T03:40:10.818Z,77.01
2023-01-29T03:42:55.970Z,76.66
2023-01-29T03:45:25.392Z,76.82
2023-01-29T03:48:13.852Z,77.36
2023-01-29T03:51:04.572Z,76.49
2023-01-29T03:53:33.738Z,76.89
2023-01-29T03:56:09.153Z,77.50
2023-01-29T03:58:50.804Z,77.37
2023-01-29T04:01:30.796Z,76.76
2023-01-29T04:04:18.431Z,77.04
2023-01-29T04:06:45.679Z,77.41
2023-01-29T04:09:22.212Z,75.18
2023-01-29T04:11:50.529Z,75.66
2023-01-29T04:14:17.042Z,76.86
2023-01-29T04:16:46.587Z,76.84
2023-01-29T04:19:13.093Z,75.82
2023-01-29T04:21:39.643Z,74.99
2023-01-29T04:24:07.148Z,76.20
2023-01-29T04:26:41.646Z,75.77
2023-01-29T04:29:33.058Z,76.11
2023-01-29T04:32:05.864Z,75.96
2023-01-29T04:34:36.616Z,75.16
2023-01-29T04:37:17.122Z,73.16
2023-01-29T04:39:56.020Z,73.49
2023-01-29T04:42:37.096Z,72.56
2023-01-29T04:45:41.348Z,73.61
2023-01-29T04:48:26.985Z,73.42
2023-01-29T04:51:00.998Z,73.00
2023-01-29T04:53:52.559Z,72.16
2023-01-29T04:56:45.180Z,71.53
2023-01-29T04:59:14.515Z,71.31
2023-01-29T05:01:41.215Z,71.48
2023-01-29T05:04:13.375Z,71.42
2023-01-29T05:06:39.932Z,72.12
2023-01-29T05:09:06.414Z,71.74
2023-01-29T05:11:33.397Z,71.94
2023-01-29T05:14:01.423Z,71.80
2023-01-29T05:16:41.911Z,71.53
2023-01-29T05:19:12.596Z,71.44
2023-01-29T05:21:41.070Z,72.32
2023-01-29T05:24:13.137Z,72.16
2023-01-29T05:26:58.799Z,72.26
2023-01-29T05:29:25.447Z,72.28
2023-01-29T05:31:51.956Z,72.05
2023-01-29T05:34:20.479Z,72.42
2023-01-29T05:36:47.325Z,72.24
2023-01-29T05:39:13.868Z,72.02
2023-01-29T05:41:40.445Z,72.21
2023-01-29T05:44:06.976Z,71.23
2023-01-29T05:46:33.476Z,72.12
2023-01-29T05:48:59.952Z,72.48
2023-01-29T05:51:26.480Z,71.99
2023-01-29T05:53:52.955Z,72.20
2023-01-29T05:56:19.407Z,72.58
2023-01-29T05:58:45.916Z,72.11
2023-01-29T06:01:14.090Z,72.69
2023-01-29T06:03:40.964Z,72.66
2023-01-29T06:06:07.633Z,72.67
2023-01-29T06:08:34.164Z,72.50
2023-01-29T06:11:00.793Z,73.47
2023-01-29T06:13:27.317Z,73.07
2023-01-29T06:15:53.841Z,72.91
2023-01-29T06:18:20.366Z,73.09
2023-01-29T06:20:46.889Z,72.96
2023-01-29T06:23:13.401Z,72.62
2023-01-29T06:25:39.871Z,72.07
2023-01-29T06:28:06.828Z,72.10
2023-01-29T06:30:33.366Z,72.01
2023-01-29T06:33:01.557Z,72.31
2023-01-29T06:35:28.323Z,71.96
2023-01-29T06:37:54.809Z,72.94
2023-01-29T06:40:21.284Z,72.75
2023-01-29T06:42:47.798Z,72.35
2023-01-29T06:45:14.353Z,72.90
2023-01-29T06:47:40.812Z,72.81
2023-01-29T06:50:07.433Z,73.25
2023-01-29T06:52:33.919Z,73.03
2023-01-29T06:55:00.405Z,72.69
2023-01-29T06:57:29.476Z,72.66
2023-01-29T06:59:56.076Z,73.24
2023-01-29T07:02:22.612Z,72.99
2023-01-29T07:04:49.253Z,72.34
2023-01-29T07:07:15.791Z,72.94
2023-01-29T07:09:42.506Z,73.21
2023-01-29T07:12:09.963Z,73.12
2023-01-29T07:14:36.588Z,72.69
2023-01-29T07:17:03.083Z,73.13
2023-01-29T07:19:29.855Z,73.57
2023-01-29T07:21:56.849Z,72.92
2023-01-29T07:24:23.333Z,72.82
2023-01-29T07:26:49.859Z,72.91
2023-01-29T07:29:16.340Z,73.04
2023-01-29T07:31:42.977Z,72.42
2023-01-29T07:34:09.589Z,72.85
2023-01-29T07:36:37.096Z,73.11
2023-01-29T07:39:03.715Z,73.16
2023-01-29T07:41:30.297Z,71.91
2023-01-29T07:43:56.780Z,73.26
2023-01-29T07:46:23.255Z,72.63
2023-01-29T07:48:49.746Z,71.63
2023-01-29T07:51:18.140Z,71.80
2023-01-29T07:53:45.045Z,72.33
2023-01-29T07:56:11.583Z,71.78
2023-01-29T07:58:38.047Z,72.22
2023-01-29T08:01:07.883Z,72.57
2023-01-29T08:03:34.632Z,72.56
2023-01-29T08:06:01.151Z,72.51
2023-01-29T08:08:27.614Z,72.86
2023-01-29T08:10:54.096Z,72.84
2023-01-29T08:13:20.586Z,72.19
2023-01-29T08:15:47.152Z,72.34
2023-01-29T08:18:14.108Z,71.97
2023-01-29T08:20:40.573Z,72.08
2023-01-29T08:23:11.968Z,72.39
2023-01-29T08:25:38.911Z,72.36
2023-01-29T08:28:05.491Z,71.97
2023-01-29T08:30:32.833Z,71.78
2023-01-29T08:32:59.447Z,71.27
2023-01-29T08:35:26.153Z,72.11
2023-01-29T08:37:58.247Z,72.58
2023-01-29T08:40:25.390Z,72.24
2023-01-29T08:42:51.882Z,71.49
2023-01-29T08:45:18.412Z,71.16
2023-01-29T08:47:49.080Z,71.14
2023-01-29T08:50:16.852Z,71.29
2023-01-29T08:52:44.018Z,71.33
2023-01-29T08:55:11.516Z,70.55
2023-01-29T08:57:38.693Z,71.25
2023-01-29T09:00:06.351Z,70.65
2023-01-29T09:02:33.321Z,71.24
2023-01-29T09:04:59.833Z,71.51
2023-01-29T09:07:26.339Z,71.05
2023-01-29T09:09:52.839Z,71.93
2023-01-29T09:12:19.310Z,71.55
2023-01-29T09:14:45.855Z,71.15
2023-01-29T09:17:12.347Z,70.40
2023-01-29T09:19:38.806Z,71.43
2023-01-29T09:22:05.273Z,70.87
2023-01-29T09:24:32.717Z,71.57
2023-01-29T09:26:59.219Z,70.93
2023-01-29T09:29:25.693Z,70.87
2023-01-29T09:31:52.380Z,71.77
2023-01-29T09:34:18.933Z,71.50
2023-01-29T09:36:45.469Z,71.21
2023-01-29T09:39:12.004Z,71.32
2023-01-29T09:42:01.578Z,70.90
2023-01-29T09:44:34.135Z,71.16
2023-01-29T09:47:00.585Z,70.30
2023-01-29T09:49:28.924Z,70.84
2023-01-29T09:52:07.418Z,71.11
2023-01-29T09:55:02.917Z,71.38
2023-01-29T09:57:39.309Z,71.16
2023-01-29T10:00:06.465Z,70.35
2023-01-29T10:03:11.126Z,70.63
2023-01-29T10:06:15.051Z,70.45
2023-01-29T10:08:56.540Z,71.14
2023-01-29T10:11:50.590Z,69.36
2023-01-29T10:14:37.912Z,69.24
2023-01-29T10:17:23.303Z,70.05
2023-01-29T10:20:01.979Z,70.23
2023-01-29T10:22:46.578Z,71.37
2023-01-29T10:25:15.705Z,70.35
2023-01-29T10:27:47.444Z,68.66
2023-01-29T10:30:20.986Z,69.42
2023-01-29T10:32:47.510Z,69.58
2023-01-29T10:35:24.982Z,68.91
2023-01-29T10:37:54.883Z,69.76
2023-01-29T10:40:29.608Z,69.11
2023-01-29T10:43:11.266Z,69.27
2023-01-29T10:45:46.903Z,68.93
2023-01-29T10:48:41.442Z,69.61
2023-01-29T10:51:46.262Z,69.15
2023-01-29T10:54:22.791Z,68.96
2023-01-29T10:57:02.214Z,69.74
2023-01-29T10:59:43.544Z,69.59
2023-01-29T11:02:18.146Z,69.66
2023-01-29T11:04:44.929Z,69.91
2023-01-29T11:07:12.550Z,69.75
2023-01-29T11:09:57.720Z,68.30
2023-01-29T11:12:30.365Z,68.19
2023-01-29T11:15:04.086Z,67.38
2023-01-29T11:17:30.663Z,67.94
2023-01-29T11:19:57.183Z,67.78
2023-01-29T11:22:25.644Z,68.03
2023-01-29T11:25:07.217Z,68.14
2023-01-29T11:27:35.463Z,67.40
2023-01-29T11:30:01.977Z,68.52
2023-01-29T11:32:29.654Z,67.97
2023-01-29T11:35:14.730Z,67.73
2023-01-29T11:37:45.157Z,68.69
2023-01-29T11:40:23.809Z,68.10
2023-01-29T11:42:50.510Z,68.10
2023-01-29T11:45:20.079Z,68.71
2023-01-29T11:47:50.461Z,67.60
2023-01-29T11:50:21.774Z,67.84
2023-01-29T11:52:48.710Z,67.05
2023-01-29T11:55:21.363Z,68.39
2023-01-29T11:57:58.162Z,67.84
2023-01-29T12:00:31.753Z,67.38
2023-01-29T12:03:16.420Z,68.37
2023-01-29T12:05:54.676Z,67.17
2023-01-29T12:08:22.900Z,67.27
2023-01-29T12:10:49.539Z,67.03
2023-01-29T12:13:25.571Z,67.27
2023-01-29T12:16:05.099Z,68.38
2023-01-29T12:18:41.721Z,67.24
2023-01-29T12:21:32.984Z,67.00
2023-01-29T12:24:20.558Z,65.46
2023-01-29T12:26:50.938Z,67.12
2023-01-29T12:29:47.008Z,65.33
2023-01-29T12:32:25.285Z,65.82
2023-01-29T12:35:22.295Z,67.82
2023-01-29T12:37:56.530Z,66.08
2023-01-29T12:40:25.413Z,65.89
2023-01-29T12:42:55.303Z,66.05
2023-01-29T12:45:23.420Z,66.23
2023-01-29T12:47:58.847Z,66.69
2023-01-29T12:50:35.530Z,65.85
2023-01-29T12:53:03.354Z,66.17
2023-01-29T12:55:34.372Z,64.74
2023-01-29T12:58:02.501Z,65.52
2023-01-29T13:00:32.283Z,65.45
2023-01-29T13:03:06.217Z,66.10
2023-01-29T13:05:46.551Z,65.57
2023-01-29T13:08:51.501Z,66.77
2023-01-29T13:11:27.041Z,66.74
2023-01-29T13:14:05.885Z,66.00
2023-01-29T13:16:40.866Z,65.86
2023-01-29T13:19:33.432Z,65.89
2023-01-29T13:22:02.252Z,65.76
2023-01-29T13:24:34.277Z,66.16
2023-01-29T13:27:00.772Z,65.85
2023-01-29T13:29:29.200Z,66.25
2023-01-29T13:31:56.658Z,66.33
2023-01-29T13:34:33.961Z,65.68
2023-01-29T13:37:09.193Z,66.33
2023-01-29T13:39:44.909Z,66.25
2023-01-29T13:42:25.260Z,66.14
2023-01-29T13:44:54.350Z,66.01
2023-01-29T13:47:28.720Z,66.00
2023-01-29T13:50:02.510Z,66.33
2023-01-29T13:52:40.789Z,66.16
2023-01-29T13:55:08.351Z,66.73
2023-01-29T13:57:44.070Z,66.37
2023-01-29T14:00:22.705Z,67.13
2023-01-29T14:02:55.013Z,66.67
2023-01-29T14:05:30.675Z,66.06
2023-01-29T14:07:59.265Z,67.05
2023-01-29T14:10:26.952Z,67.16
2023-01-29T14:13:11.692Z,67.23
2023-01-29T14:15:44.214Z,67.29
2023-01-29T14:18:19.383Z,67.18
2023-01-29T14:21:07.530Z,67.87
2023-01-29T14:23:41.612Z,67.90
2023-01-29T14:26:27.451Z,67.22
2023-01-29T14:28:58.844Z,68.10
2023-01-29T14:31:42.067Z,67.54
2023-01-29T14:34:18.200Z,67.15
2023-01-29T14:36:45.036Z,67.27
2023-01-29T14:39:28.606Z,67.72
2023-01-29T14:41:55.167Z,67.95
2023-01-29T14:44:47.241Z,68.20
2023-01-29T14:47:40.477Z,67.94
2023-01-29T14:50:25.726Z,67.39
2023-01-29T14:52:53.917Z,67.56
2023-01-29T14:55:43.057Z,67.70
2023-01-29T14:58:22.792Z,67.88
2023-01-29T15:00:51.224Z,68.56
2023-01-29T15:03:20.763Z,68.34
2023-01-29T15:05:47.239Z,68.41
2023-01-29T15:08:37.681Z,69.29
2023-01-29T15:11:25.981Z,68.74
2023-01-29T15:13:55.856Z,69.07
2023-01-29T15:16:27.329Z,69.55
2023-01-29T15:18:56.784Z,69.56
2023-01-29T15:21:23.261Z,69.55
2023-01-29T15:23:53.597Z,69.88
2023-01-29T15:26:25.345Z,69.68
2023-01-29T15:29:04.934Z,69.27
2023-01-29T15:31:32.097Z,69.28
2023-01-29T15:34:00.182Z,69.38
2023-01-29T15:36:28.459Z,69.89
2023-01-29T15:39:13.055Z,69.22
2023-01-29T15:41:39.604Z,69.84
2023-01-29T15:44:20.082Z,70.33
2023-01-29T15:46:56.949Z,70.33
2023-01-29T15:49:34.557Z,70.33
2023-01-29T15:52:04.357Z,70.98
2023-01-29T15:54:31.392Z,70.80
2023-01-29T15:56:58.062Z,71.15
2023-01-29T15:59:44.180Z,70.77
2023-01-29T16:02:37.627Z,71.00
2023-01-29T16:05:05.809Z,70.56
2023-01-29T16:07:32.389Z,71.27
2023-01-29T16:09:58.953Z,71.44
2023-01-29T16:12:25.431Z,71.53
2023-01-29T16:14:51.917Z,71.76
2023-01-29T16:17:29.309Z,71.01
2023-01-29T16:19:59.661Z,71.30
2023-01-29T16:22:31.006Z,71.39
2023-01-29T16:25:01.117Z,70.95
2023-01-29T16:27:27.757Z,71.13
2023-01-29T16:29:54.274Z,71.18
2023-01-29T16:32:20.917Z,71.45
2023-01-29T16:34:52.452Z,71.38
2023-01-29T16:37:23.497Z,72.20
2023-01-29T16:39:50.841Z,71.78
2023-01-29T16:42:21.358Z,71.88
2023-01-29T16:44:58.402Z,72.08
2023-01-29T16:47:35.908Z,72.26
2023-01-29T16:50:17.295Z,72.04
2023-01-29T16:53:01.980Z,72.21
2023-01-29T16:55:33.297Z,72.44
2023-01-29T16:58:01.457Z,72.38
2023-01-29T17:00:28.937Z,72.09
2023-01-29T17:02:59.539Z,72.42
2023-01-29T17:05:30.435Z,72.21
2023-01-29T17:07:58.379Z,72.92
2023-01-29T17:10:25.554Z,73.13
2023-01-29T17:12:55.126Z,72.83
2023-01-29T17:15:36.802Z,73.34
2023-01-29T17:18:03.444Z,73.26
2023-01-29T17:20:30.066Z,73.17
2023-01-29T17:22:56.619Z,73.16
2023-01-29T17:25:23.707Z,74.09
2023-01-29T17:27:52.120Z,73.38
2023-01-29T17:30:19.968Z,73.79
2023-01-29T17:32:47.306Z,74.41
2023-01-29T17:35:15.414Z,73.85
2023-01-29T17:37:42.104Z,73.69
2023-01-29T17:40:16.329Z,73.81
2023-01-29T17:42:42.891Z,73.60
2023-01-29T17:45:10.753Z,74.03
2023-01-29T17:47:37.263Z,74.24
2023-01-29T17:50:12.395Z,75.76
2023-01-29T17:52:38.881Z,77.21
2023-01-29T17:55:05.956Z,77.49
2023-01-29T17:57:32.840Z,77.26
2023-01-29T17:59:59.359Z,76.40
2023-01-29T18:02:29.489Z,76.52
2023-01-29T18:04:56.865Z,77.24
2023-01-29T18:07:23.355Z,76.85
2023-01-29T18:09:49.840Z,76.95
2023-01-29T18:12:16.338Z,77.44
2023-01-29T18:14:42.857Z,77.91
2023-01-29T18:17:09.334Z,78.54
2023-01-29T18:19:35.845Z,79.43
2023-01-29T18:22:02.385Z,79.38
2023-01-29T18:24:29.972Z,78.66
2023-01-29T18:26:56.506Z,78.91
2023-01-29T18:29:29.389Z,78.83
2023-01-29T18:31:56.223Z,79.14
2023-01-29T18:34:22.757Z,79.62
2023-01-29T18:36:50.141Z,79.83
2023-01-29T18:39:16.841Z,79.51
2023-01-29T18:41:43.353Z,80.41
2023-01-29T18:44:10.586Z,80.47
2023-01-29T18:46:37.255Z,80.64
2023-01-29T18:49:05.086Z,80.81
2023-01-29T18:51:31.806Z,80.52
2023-01-29T18:53:58.343Z,79.99
2023-01-29T18:56:24.932Z,80.17
2023-01-29T18:58:55.345Z,80.46
2023-01-29T19:01:22.562Z,81.42
2023-01-29T19:03:49.129Z,80.63
2023-01-29T19:06:15.682Z,81.41
2023-01-29T19:08:43.725Z,80.75
2023-01-29T19:11:12.398Z,81.66
2023-01-29T19:13:38.968Z,81.96
2023-01-29T19:16:09.251Z,82.00
2023-01-29T19:18:35.854Z,81.85
2023-01-29T19:21:06.581Z,81.86
2023-01-29T19:23:33.099Z,81.93
2023-01-29T19:25:59.608Z,82.21
2023-01-29T19:28:26.350Z,82.99
2023-01-29T19:30:52.997Z,82.68
2023-01-29T19:33:19.845Z,82.43
2023-01-29T19:35:46.371Z,82.96
2023-01-29T19:38:18.552Z,82.70
2023-01-29T19:40:45.226Z,82.96
2023-01-29T19:43:13.434Z,82.55
2023-01-29T19:45:49.736Z,82.04
2023-01-29T19:48:22.761Z,82.34
2023-01-29T19:50:59.951Z,82.93
2023-01-29T19:53:27.891Z,82.55
2023-01-29T19:56:03.099Z,82.73
2023-01-29T19:58:29.762Z,82.07
2023-01-29T20:01:00.705Z,81.42
2023-01-29T20:03:27.725Z,81.66
2023-01-29T20:05:54.480Z,81.21
2023-01-29T20:08:21.053Z,81.93
2023-01-29T20:10:48.453Z,81.17
2023-01-29T20:13:15.103Z,81.30
2023-01-29T20:15:48.761Z,81.89
2023-01-29T20:18:15.289Z,81.56
2023-01-29T20:20:53.088Z,80.51
2023-01-29T20:23:31.689Z,81.19
2023-01-29T20:26:03.690Z,81.41
2023-01-29T20:28:30.189Z,82.41
2023-01-29T20:30:58.172Z,81.82
2023-01-29T20:33:25.339Z,81.77
2023-01-29T20:35:59.540Z,82.08
2023-01-29T20:38:30.372Z,81.49
2023-01-29T20:41:12.399Z,81.64
2023-01-29T20:43:39.119Z,80.58
2023-01-29T20:46:05.778Z,81.22
2023-01-29T20:48:33.089Z,80.93
2023-01-29T20:51:06.603Z,80.61
2023-01-29T20:53:33.138Z,80.73
2023-01-29T20:55:59.782Z,81.36
2023-01-29T20:58:26.556Z,81.09
2023-01-29T21:00:53.067Z,81.04
2023-01-29T21:03:19.630Z,82.04
2023-01-29T21:05:46.403Z,82.04
2023-01-29T21:08:12.980Z,82.25
2023-01-29T21:10:39.451Z,82.39
2023-01-29T21:13:06.034Z,82.02
2023-01-29T21:15:32.506Z,82.54
2023-01-29T21:18:02.524Z,82.26
2023-01-29T21:20:29.053Z,82.32
2023-01-29T21:22:55.583Z,82.61
2023-01-29T21:25:23.009Z,82.36
2023-01-29T21:27:49.923Z,82.27
2023-01-29T21:30:18.146Z,82.69
2023-01-29T21:32:45.305Z,82.25
2023-01-29T21:35:11.879Z,82.22
2023-01-29T21:37:38.425Z,82.37
2023-01-29T21:40:05.838Z,82.29
2023-01-29T21:42:50.935Z,82.25
2023-01-29T21:45:17.539Z,82.59
2023-01-29T21:47:44.023Z,82.75
2023-01-29T21:50:11.139Z,82.48
2023-01-29T21:52:38.221Z,82.65
2023-01-29T21:55:05.163Z,82.41
2023-01-29T21:57:31.784Z,82.07
2023-01-29T21:59:59.357Z,81.86
2023-01-29T22:02:32.001Z,82.49
2023-01-29T22:05:16.553Z,81.92
2023-01-29T22:07:45.042Z,82.66
2023-01-29T22:10:12.366Z,82.14
2023-01-29T22:12:39.385Z,83.00
2023-01-29T22:15:07.961Z,82.31
2023-01-29T22:17:35.271Z,82.11
2023-01-29T22:20:01.914Z,82.66
2023-01-29T22:22:28.462Z,82.82
2023-01-29T22:24:56.426Z,81.96
2023-01-29T22:27:22.908Z,82.46
2023-01-29T22:29:49.499Z,82.91
2023-01-29T22:32:16.396Z,82.64
2023-01-29T22:34:42.978Z,83.67
2023-01-29T22:37:09.478Z,83.24
2023-01-29T22:39:36.027Z,83.23
2023-01-29T22:42:02.530Z,83.11
2023-01-29T22:44:29.063Z,82.72
2023-01-29T22:46:55.518Z,82.41
2023-01-29T22:49:23.076Z,82.59
2023-01-29T22:52:10.142Z,82.73
2023-01-29T22:54:38.216Z,82.76
2023-01-29T22:57:05.014Z,82.75
2023-01-29T22:59:32.084Z,82.55
2023-01-29T23:01:58.654Z,82.17
2023-01-29T23:04:25.247Z,82.72
2023-01-29T23:06:51.824Z,82.75
2023-01-29T23:09:18.318Z,82.28
2023-01-29T23:11:44.818Z,81.87
2023-01-29T23:14:11.373Z,82.63
2023-01-29T23:16:37.829Z,82.48
2023-01-29T23:19:04.327Z,82.46
2023-01-29T23:21:31.986Z,82.56
2023-01-29T23:23:59.540Z,82.74
2023-01-29T23:26:45.229Z,83.18
2023-01-29T23:29:11.813Z,83.11
2023-01-29T23:31:38.698Z,82.92
2023-01-29T23:34:05.319Z,83.35
2023-01-29T23:36:31.798Z,83.24
2023-01-29T23:38:58.331Z,82.98
2023-01-29T23:41:24.857Z,83.63
2023-01-29T23:43:52.716Z,83.43
2023-01-29T23:46:19.277Z,83.40
2023-01-29T23:48:46.221Z,82.60
2023-01-29T23:51:12.711Z,82.71
2023-01-29T23:53:39.227Z,83.56
2023-01-29T23:56:06.026Z,83.44
2023-01-29T23:58:32.871Z,83.94
